Alvin, TX (77512)

5:56 PM CST on February 06, 2016 (GMT -0600)
Texas Gulf flat lands. | | Change Station
CLOSE
Current Station
Personal Weather Station
Location: Alvin, TX
Elevation: 69 ft
Nearby Weather Stations

Elev 69 ft 29.42 °N, 95.25 °W | Updated 1 minute ago

Clear
Clear
55.9 °F
Feels Like 55.9 °F
N
0.0
Wind Variable Wind from NNE

Today
High -- | Low -- °F
--% Chance of Precip.
Yesterday
High -- | Low -- °F
Precip. -- in
Pressure 30.32 in
Visibility 10.0 miles
Clouds Clear
Dew Point 36 °F
Humidity 47%
Rainfall 0.04 in
Snow Depth Not available.
7:07 AM 6:02 PM
Waning Crescent, 3% visible
METAR KLVJ 062353Z AUTO 35008KT 10SM CLR 14/M01 A3032 RMK AO2 SLP265 T01441006 10161 20133 53013
Pressure 30.32 in
Visibility 10.0 miles
Clouds Clear
Dew Point 36 °F
Humidity 47%
Rainfall 0.04 in
Snow Depth Not available.
7:07 AM 6:02 PM
Waning Crescent, 3% visible
METAR KLVJ 062353Z AUTO 35008KT 10SM CLR 14/M01 A3032 RMK AO2 SLP265 T01441006 10161 20133 53013

10-Day Weather Forecast

Almanac

Astronomy

Feb. 06, 2016 Rise Set
Actual Time
Civil Twilight
Nautical Twilight
Astronomical Twilight
Moon
Length of Visible Light
Length of Day
Tomorrow will be .
, % of the Moon is Illuminated

Today's Extremes

State Highs State Lows

Community

WunderPhotos

Upload Photos

1,891,098 photos uploaded!

WunderBlog® & News

Nearby

Air Quality

  Air Quality AQ Index Pollutant
Not available.

Snow Depth

Station Depth Elevation

Earthquake Activity

City Distance Mag. Time & Date
Minimum magnitude displayed is 2.5.

Coastal Water Temperatures

Place Temperature

Stations

Nearby Weather Stations

Station Location Temp. Windchill Dew Point Humidity Wind Precip. Elev Updated Type
                   

Watches & Warnings

There are currently no watches in effect.